Fork Union, Virginia
Current Conditions -  °F | °C
As of 4:35 PM on Wednesday 26 Nov 2014 (Local Time) from KLKU Reporting Station
Drizzle Drizzle  
Wind Chill: 31°   Ceiling: 600
Heat Index: 36°   Visibility: 10mi
Dew Point: 36°   Wind: 6mph
Humidity: 100%   Direction: 320°NW
Pressure: 29.96"   Gusts: NA
Location:  37.76°N, 78.26°W
Report Text: KLKU 262135Z AUTO 32005KT 10SM DZ BKN006 BKN025 OVC075 02/02 A2996 RMK AO2 P0001
Loading
Personal Weather Stations






























Interactive Weather Map New forecast layout! Learn more

10-Day Weather Forecast

Advertisements
Track Severe Weather on mobile